Spragueville, IA (52074)

7:31 AM CDT on August 30, 2015 (GMT -0500)
Mt Murrell at Joe Brown's | | Change Station
CLOSE
Current Station
Personal Weather Station
Location: Charlotte, IA
Elevation: 784 ft
Nearby Weather Stations
Active Advisory: Dense Fog Advisory

Elev 784 ft 41.98 °N, 90.50 °W | Updated 1 minute ago

Fog
Fog
60.1 °F
Feels Like 60.1 °F
N
0.0
Wind Variable Wind from West
Gusts 0.0 mph

Today
High -- | Low -- °F
--% Chance of Precip.
Yesterday
High -- | Low -- °F
Precip. -- in
6:25 AM 7:39 PM
Full, 99% visible
Pressure 30.09 in
Visibility 0.2 miles
Clouds Mostly Cloudy 200 ft
Dew Point 60 °F
Humidity 99%
Rainfall 0.00 in
Snow Depth Not available.
UV 0 out of 12
Pollen 10.00 out of 12
Air Quality Not available.
Flu Activity Not available.
METAR KCWI 301215Z 00000KT M1/4SM BKN002 15/14 A3009 RMK AO1
Pressure 30.09 in
Visibility 0.2 miles
Clouds Mostly Cloudy 200 ft
Dew Point 60 °F
Humidity 99%
Rainfall 0.00 in
Snow Depth Not available.
UV 0 out of 12
Pollen 10.00 out of 12
Air Quality Not available.
Flu Activity Not available.
METAR KCWI 301215Z 00000KT M1/4SM BKN002 15/14 A3009 RMK AO1

10-Day Weather Forecast

×

Almanac

Astronomy

Aug. 30, 2015 Rise Set
Actual Time
Civil Twilight
Nautical Twilight
Astronomical Twilight
Moon
Length of Visible Light
Length of Day
Tomorrow will be .
, % of the Moon is Illuminated

Today's Extremes

State Highs State Lows

Community

WunderPhotos

Upload Photos

1,850,940 photos uploaded!

WunderBlogs® & News

Nearby

Air Quality

  Air Quality AQ Index Pollutant
Not available.

Snow Depth

Station Depth Elevation

Earthquake Activity

City Distance Mag. Time & Date
Minimum magnitude displayed is 2.5.

Coastal Water Temperatures

Place Temperature

Stations

Nearby Weather Stations

Station Location Temp. Windchill Dew Point Humidity Wind Precip. Elev Updated Type
                   
Dense Fog Advisory
Statement as of 1:35 AM CDT on August 30, 2015

... Dense fog advisory remains in effect until 11 am CDT this
morning...

* timing... now through 11 am CDT Sunday

* visibilities... one quarter mile or less at times. Near zero
visibility could occur in some areas.

* Impacts... driving could become difficult. Be sure to slow
down... use your headlights... and leave plenty of space ahead
of of you.

Precautionary/preparedness actions...

A dense fog advisory means visibilities will frequently be
reduced to less than one quarter mile. If driving... slow down...
use your headlights... and leave plenty of distance ahead of you.